Latest Weather Observations for Holsworthy

IDN60901

Issued at 8:31 pm EST Tuesday 25 April 2017 (issued every 10 minutes, with the page automatically refreshed every 10 minutes)

About weather observations | Map of Sydney area stations | Latest observations for Sydney area | Other Formats
Station Details ID: 066161 Name: HOLSWORTHY AERODROME AWS Lat: -33.99 Lon: 150.95 Height: 68.16 m
Data from the previous 72 hours. | See also: Recent months at Holsworthy
Date/Time
EST
Temp
°C
App
Temp
°C
Dew
Point
°C
Rel
Hum
%
Delta-T
°C
Wind Press
QNH
hPa
Press
MSL
hPa
Rain since
9am
mm
Dir  Spd
km/h
Gust
km/h
Spd
kts
Gust
kts
25/08:30pm 19.6 19.8 15.7 78 2.3 N 9 15 5 8 1008.8 1008.6 0.4
25/08:00pm 20.0 20.6 15.8 77 2.5 NNW 7 11 4 6 1008.5 1008.3 0.4
25/07:30pm 20.2 20.3 15.6 75 2.7 NNW 9 15 5 8 1008.4 1008.2 0.4
25/07:00pm 20.3 19.4 15.9 76 2.6 N 15 20 8 11 1008.4 1008.2 0.4
25/06:30pm 20.0 20.7 16.0 78 2.4 NNW 7 15 4 8 1008.5 1008.3 0.4
25/06:00pm 20.0 19.6 16.2 79 2.3 N 13 17 7 9 1008.4 1008.2 0.4
25/05:30pm 20.0 20.1 16.4 80 2.2 N 11 15 6 8 1008.4 1008.2 0.4
25/05:00pm 20.4 20.2 16.6 79 2.3 N 13 17 7 9 1008.5 1008.3 0.4
25/04:30pm 20.4 20.6 16.8 80 2.2 NNE 11 15 6 8 1008.4 1008.2 0.4
25/04:00pm 21.2 21.0 16.6 75 2.8 N 13 19 7 10 1008.4 1008.2 0.4
25/03:30pm 21.3 23.9 18.3 83 1.9 NE 2 7 1 4 1008.2 1008.0 0.4
25/03:00pm 21.4 24.4 18.4 83 1.9 CALM 0 0 0 0 1008.2 1008.0 0.4
25/02:30pm 22.2 23.0 17.3 74 3.0 WSW 9 15 5 8 1008.6 1008.4 0.0
25/02:00pm 24.9 22.3 13.8 50 6.6 NNW 20 32 11 17 1008.5 1008.3 0.0
25/01:30pm 25.5 23.1 14.3 50 6.7 NNW 20 32 11 17 1008.5 1008.3 0.0
25/01:00pm 26.1 25.3 15.2 51 6.6 N 13 24 7 13 1008.9 1008.7 0.0
25/12:30pm 24.8 24.0 15.1 54 5.8 N 13 19 7 10 1009.7 1009.6 0.0
25/12:00pm 24.1 23.6 14.8 56 5.6 N 11 17 6 9 1010.4 1010.3 0.0
25/11:30am 24.7 22.4 14.2 52 6.2 N 19 28 10 15 1011.0 1010.9 0.0
25/11:00am 23.1 21.8 14.7 59 5.0 N 15 20 8 11 1011.8 1011.7 0.0
25/10:30am 21.5 20.7 15.1 67 3.8 N 13 19 7 10 1012.5 1012.4 0.0
25/10:00am 20.5 20.4 15.9 75 2.8 N 11 13 6 7 1013.1 1013.0 0.0
25/09:30am 19.5 19.8 16.0 80 2.1 N 9 13 5 7 1013.5 1013.4 0.0
25/09:00am 19.5 19.9 16.2 81 2.0 N 9 13 5 7 1014.0 1013.9 0.0
25/08:30am 17.7 18.4 15.7 88 1.2 NNW 6 7 3 4 1014.5 1014.3 0.0
25/08:00am 17.0 18.5 15.7 92 0.8 NNW 2 7 1 4 1014.6 1014.4 0.0
25/07:30am 16.5 18.3 15.4 93 0.6 CALM 0 0 0 0 1014.2 1014.1 0.0
25/07:00am 16.0 17.5 14.7 92 0.7 CALM 0 0 0 0 1014.4 1014.2 0.0
25/06:30am 15.8 17.2 14.3 91 0.9 CALM 0 0 0 0 1014.4 1014.2 0.0
25/06:00am 16.0 17.4 14.4 90 0.9 CALM 0 0 0 0 1014.4 1014.2 0.0
25/05:30am 16.5 17.9 14.3 87 1.3 CALM 0 0 0 0 1014.5 1014.3 0.0
25/05:00am 17.4 17.9 15.0 86 1.4 NE 6 7 3 4 1014.7 1014.5 0.0
25/04:30am 17.4 17.8 15.2 87 1.3 NE 7 11 4 6 1014.7 1014.5 0.0
25/04:00am 17.2 17.4 14.8 86 1.4 NE 7 9 4 5 1014.8 1014.6 0.0
25/03:30am 17.2 17.5 15.0 87 1.3 ENE 7 9 4 5 1015.0 1014.8 0.0
25/03:00am 17.6 17.9 15.0 85 1.5 ENE 7 9 4 5 1015.4 1015.2 0.0
25/02:30am 17.6 18.0 15.2 86 1.4 ENE 7 9 4 5 1015.7 1015.5 0.0
25/02:00am 17.3 18.7 15.3 88 1.2 ENE 2 7 1 4 1016.3 1016.1 0.0
25/01:30am 17.4 17.9 15.6 89 1.1 NE 7 11 4 6 1016.7 1016.5 0.0
25/01:00am 16.9 17.5 15.2 90 1.0 NE 6 7 3 4 1017.0 1016.8 0.0
25/12:30am 17.2 18.3 15.7 91 0.9 E 4 9 2 5 1017.5 1017.3 0.0
25/12:00am 17.1 17.8 15.6 91 0.9 ESE 6 6 3 3 1017.7 1017.5 0.0
 
Date/Time
EST
Temp
°C
App
Temp
°C
Dew
Point
°C
Rel
Hum
%
Delta-T
°C
Wind Press
QNH
hPa
Press
MSL
hPa
Rain since
9am
mm
Dir  Spd
km/h
Gust
km/h
Spd
kts
Gust
kts
24/11:30pm 17.4 18.0 15.4 88 1.2 E 6 7 3 4 1018.0 1017.8 0.0
24/11:00pm 17.9 18.7 15.9 88 1.2 ENE 6 7 3 4 1018.4 1018.2 0.0
24/10:30pm 18.3 19.2 16.1 87 1.3 NE 6 9 3 5 1018.6 1018.4 0.0
24/10:00pm 18.4 19.6 15.8 85 1.5 E 4 6 2 3 1019.1 1018.9 0.0
24/09:30pm 18.4 19.2 15.8 85 1.5 ENE 6 9 3 5 1019.2 1019.0 0.0
24/09:00pm 18.4 19.1 15.6 84 1.7 NE 6 9 3 5 1019.4 1019.2 0.0
24/08:30pm 18.4 19.0 15.3 82 1.8 NE 6 7 3 4 1019.2 1019.0 0.0
24/08:00pm 18.4 18.3 14.9 80 2.0 E 9 11 5 6 1018.9 1018.7 0.0
24/07:30pm 18.5 18.3 14.8 79 2.2 E 9 11 5 6 1019.0 1018.8 0.0
24/07:00pm 18.7 18.6 15.0 79 2.2 ENE 9 11 5 6 1019.0 1018.8 0.0
24/06:30pm 19.0 19.3 14.9 77 2.4 ENE 7 11 4 6 1018.8 1018.6 0.0
24/06:00pm 19.4 19.3 14.9 75 2.6 ENE 9 13 5 7 1018.4 1018.2 0.0
24/05:30pm 20.1 20.0 14.9 72 3.1 ENE 9 11 5 6 1018.3 1018.1 0.0
24/05:00pm 21.2 20.9 15.5 70 3.4 ENE 11 15 6 8 1018.1 1017.9 0.0
24/04:30pm 22.2 22.0 15.8 67 3.9 E 11 17 6 9 1017.9 1017.7 0.0
24/04:00pm 22.9 22.4 16.0 65 4.2 E 13 19 7 10 1018.0 1017.8 0.0
24/03:30pm 23.2 21.9 15.8 63 4.5 E 17 22 9 12 1018.1 1017.9 0.0
24/03:00pm 23.5 22.5 15.5 60 4.8 E 15 20 8 11 1018.2 1018.0 0.0
24/02:30pm 24.4 23.2 13.9 52 6.2 ENE 13 22 7 12 1018.4 1018.2 0.0
24/02:00pm 24.6 24.3 13.2 49 6.6 N 7 13 4 7 1018.6 1018.4 0.0
24/01:30pm 23.9 23.4 12.5 49 6.5 NNE 7 15 4 8 1019.0 1018.8 0.0
24/01:00pm 23.8 23.7 13.4 52 6.0 NNW 6 9 3 5 1019.5 1019.3 0.0
24/12:30pm 23.3 23.2 13.8 55 5.6 N 7 13 4 7 1020.1 1019.9 0.0
24/12:00pm 22.5 22.4 13.8 58 5.1 ENE 7 11 4 6 1020.8 1020.6 0.0
24/11:30am 22.3 22.4 13.9 59 4.9 N 6 9 3 5 1021.4 1021.2 0.0
24/11:00am 22.3 23.4 14.7 62 4.5 WNW 2 11 1 6 1021.9 1021.8 0.0
24/10:30am 21.0 21.0 14.2 65 4.0 NW 7 11 4 6 1022.3 1022.2 0.0
24/10:00am 20.1 19.8 14.5 70 3.3 W 9 20 5 11 1022.6 1022.5 0.0
24/09:30am 19.0 19.1 13.8 72 3.0 W 6 9 3 5 1022.7 1022.6 0.0
24/09:00am 18.1 18.0 14.0 77 2.3 NW 7 11 4 6 1022.9 1022.8 0.0
24/08:30am 16.5 16.5 14.2 86 1.3 WSW 7 11 4 6 1022.9 1022.8 0.0
24/08:00am 14.9 14.2 13.3 90 0.9 W 9 13 5 7 1022.8 1022.7 0.0
24/07:30am 13.7 12.1 12.8 94 0.5 SW 13 15 7 8 1022.5 1022.4 0.0
24/07:00am 13.0 11.3 12.5 97 0.3 WSW 13 15 7 8 1022.4 1022.3 0.0
24/06:30am 12.5 11.8 11.9 96 0.3 W 7 11 4 6 1022.3 1022.2 0.0
24/06:00am 12.4 11.6 11.6 95 0.4 WSW 7 9 4 5 1022.0 1021.9 0.0
24/05:30am 12.9 13.6 12.1 95 0.4 CALM 0 0 0 0 1021.8 1021.7 0.0
24/05:00am 12.9 11.5 12.1 95 0.4 WSW 11 13 6 7 1021.6 1021.5 0.0
24/04:30am 13.5 12.3 12.7 95 0.4 SW 11 13 6 7 1021.5 1021.4 0.0
24/04:00am 13.7 12.5 12.9 95 0.4 SW 11 15 6 8 1021.5 1021.4 0.0
24/03:30am 13.9 12.8 13.1 95 0.4 SW 11 13 6 7 1021.5 1021.4 0.0
24/03:00am 14.0 13.3 13.2 95 0.4 SW 9 11 5 6 1021.7 1021.6 0.0
24/02:30am 14.2 13.5 13.2 94 0.6 SW 9 11 5 6 1021.9 1021.8 0.0
24/02:00am 14.8 14.3 13.8 94 0.6 SW 9 13 5 7 1022.3 1022.2 0.0
24/01:30am 15.0 14.2 14.0 94 0.6 SW 11 13 6 7 1022.4 1022.3 0.0
24/01:00am 15.2 14.8 14.2 94 0.6 SW 9 11 5 6 1022.6 1022.5 0.0
24/12:30am 15.6 15.0 14.5 93 0.6 SW 11 15 6 8 1022.8 1022.7 0.0
24/12:00am 15.9 14.9 14.6 92 0.7 SW 13 15 7 8 1023.0 1022.9 0.0
 
Date/Time
EST
Temp
°C
App
Temp
°C
Dew
Point
°C
Rel
Hum
%
Delta-T
°C
Wind Press
QNH
hPa
Press
MSL
hPa
Rain since
9am
mm
Dir  Spd
km/h
Gust
km/h
Spd
kts
Gust
kts
23/11:30pm 16.6 16.2 15.1 91 0.9 SW 11 17 6 9 1023.1 1023.0 0.0
23/11:00pm 16.7 15.9 15.2 91 0.9 SSW 13 17 7 9 1023.4 1023.3 0.0
23/10:30pm 16.5 16.1 15.2 92 0.8 SW 11 15 6 8 1023.5 1023.4 0.0
23/10:00pm 16.6 16.2 15.1 91 0.9 SW 11 15 6 8 1023.6 1023.5 0.0
23/09:30pm 16.6 16.6 15.1 91 0.9 SW 9 13 5 7 1023.7 1023.6 0.0
23/09:00pm 16.7 16.5 15.6 93 0.6 SW 11 13 6 7 1023.7 1023.6 0.0
23/08:30pm 15.9 16.1 14.6 92 0.7 SW 7 7 4 4 1023.5 1023.4 0.0
23/08:00pm 16.2 16.5 14.6 90 0.9 SW 6 9 3 5 1023.3 1023.2 0.0
23/07:30pm 16.6 18.1 14.6 88 1.2 CALM 0 0 0 0 1023.0 1022.9 0.0
23/07:00pm 17.3 18.1 14.9 86 1.4 ESE 4 6 2 3 1022.8 1022.7 0.0
23/06:30pm 17.8 19.5 15.2 85 1.5 CALM 0 4 0 2 1022.4 1022.3 0.0
23/06:00pm 18.6 20.3 15.1 80 2.0 CALM 0 2 0 1 1022.0 1021.9 0.0
23/05:30pm 19.6 20.2 15.7 78 2.3 SE 7 11 4 6 1021.7 1021.6 0.0
23/05:00pm 20.2 19.3 15.8 76 2.6 SE 15 19 8 10 1021.4 1021.2 0.0
23/04:30pm 21.2 19.7 16.2 73 3.0 SE 19 22 10 12 1021.1 1020.9 0.0
23/04:00pm 22.2 20.6 16.0 68 3.7 ESE 19 24 10 13 1021.0 1020.8 0.0
23/03:30pm 23.1 21.5 16.4 66 4.1 SE 20 26 11 14 1020.8 1020.6 0.0
23/03:00pm 24.3 22.9 15.5 58 5.3 SE 17 22 9 12 1020.9 1020.7 0.0
23/02:30pm 24.3 23.1 16.0 60 5.1 SE 17 20 9 11 1020.9 1020.7 0.0
23/02:00pm 24.1 22.4 14.8 56 5.5 SE 17 20 9 11 1021.0 1020.8 0.0
23/01:30pm 25.2 24.2 12.4 45 7.4 NNE 9 13 5 7 1021.0 1020.8 0.0
23/01:00pm 25.0 24.9 13.2 48 6.9 S 6 9 3 5 1021.4 1021.2 0.0
23/12:30pm 23.8 22.5 12.4 48 6.5 N 11 19 6 10 1021.8 1021.7 0.0
23/12:00pm 24.5 25.0 14.9 55 5.7 WSW 6 9 3 5 1022.3 1022.2 0.0
23/11:30am 23.2 22.9 12.8 52 6.0 N 6 11 3 6 1022.7 1022.6 0.0
23/11:00am 22.1 22.0 13.2 57 5.1 WSW 6 7 3 4 1023.3 1023.2 0.0
23/10:30am 21.6 21.1 13.8 61 4.5 WNW 9 15 5 8 1023.7 1023.6 0.0
23/10:00am 20.1 19.6 13.8 67 3.6 W 9 13 5 7 1023.9 1023.8 0.0
23/09:30am 19.1 18.6 13.9 72 3.0 WSW 9 13 5 7 1024.0 1023.9 0.0
23/09:00am 17.5 16.9 13.6 78 2.2 WNW 9 15 5 8 1024.1 1024.0 0.0
23/08:30am 16.2 16.1 13.9 86 1.3 W 7 11 4 6 1024.0 1023.9 0.0
23/08:00am 14.8 14.7 13.2 90 0.9 W 6 7 3 4 1023.9 1023.8 0.0
23/07:30am 14.1 15.1 13.1 94 0.6 CALM 0 0 0 0 1023.8 1023.7 0.0
23/07:00am 13.4 14.3 12.8 96 0.3 CALM 0 0 0 0 1023.6 1023.5 0.0
23/06:30am 12.8 12.3 12.0 95 0.4 SW 6 7 3 4 1023.2 1023.1 0.0
23/06:00am 13.6 12.5 13.0 96 0.3 SW 11 13 6 7 1022.8 1022.7 0.0
23/05:30am 13.4 11.8 12.9 97 0.3 WSW 13 15 7 8 1022.7 1022.6 0.0
23/05:00am 13.4 12.6 12.8 96 0.3 WSW 9 11 5 6 1022.5 1022.4 0.0
23/04:30am 13.4 13.1 12.6 95 0.4 WSW 6 7 3 4 1022.2 1022.1 0.0
23/04:00am 13.8 13.5 13.2 96 0.3 SW 7 9 4 5 1022.2 1022.1 0.0
23/03:30am 13.6 13.3 12.7 94 0.5 WSW 6 9 3 5 1022.2 1022.1 0.0
23/03:00am 13.9 14.8 13.0 94 0.5 CALM 0 0 0 0 1022.4 1022.3 0.0
23/02:30am 14.2 14.4 13.2 94 0.6 WSW 4 11 2 6 1022.5 1022.4 0.0
23/02:00am 14.8 16.0 13.7 93 0.6 CALM 0 0 0 0 1022.6 1022.5 0.0
23/01:30am 14.8 16.0 13.7 93 0.6 CALM 0 0 0 0 1022.9 1022.8 0.0
23/01:00am 14.7 15.8 13.4 92 0.7 CALM 0 0 0 0 1023.1 1023.0 0.0
23/12:30am 15.5 16.7 13.9 90 0.9 CALM 0 0 0 0 1023.2 1023.1 0.0
23/12:00am 16.3 16.6 15.0 92 0.7 SE 7 7 4 4 1023.4 1023.3 0.0
 
Date/Time
EST
Temp
°C
App
Temp
°C
Dew
Point
°C
Rel
Hum
%
Delta-T
°C
Wind Press
QNH
hPa
Press
MSL
hPa
Rain since
9am
mm
Dir  Spd
km/h
Gust
km/h
Spd
kts
Gust
kts
22/11:30pm 16.2 16.4 14.7 91 0.9 SSE 7 7 4 4 1023.4 1023.3 0.0
22/11:00pm 16.8 17.0 14.8 88 1.2 SE 7 9 4 5 1023.5 1023.4 0.0
22/10:30pm 17.1 17.4 14.9 87 1.3 ESE 7 9 4 5 1023.6 1023.5 0.0
22/10:00pm 17.8 18.4 15.2 85 1.5 ESE 6 7 3 4 1023.7 1023.6 0.0
22/09:30pm 18.2 18.6 15.3 83 1.7 ESE 7 9 4 5 1023.6 1023.5 0.0
22/09:00pm 18.2 18.7 15.5 84 1.6 ESE 7 7 4 4 1023.6 1023.5 0.0

Latest Capital City Observations: Canberra | Sydney | Melbourne | Brisbane | Adelaide | Perth | Hobart | Darwin

Other Formats:

Comma delimited format used in spreadsheet applications
http://www.bom.gov.au/fwo/IDN60901/IDN60901.95761.axf

JavaScript Object Notation format (JSON) in row-major order
http://www.bom.gov.au/fwo/IDN60901/IDN60901.95761.json